createdAt,value
2019-03-30T00:01:07.455Z,42.20
2019-03-30T00:03:36.603Z,44.23
2019-03-30T00:06:05.798Z,42.80
2019-03-30T00:08:35.001Z,44.87
2019-03-30T00:11:04.184Z,43.20
2019-03-30T00:13:33.353Z,43.53
2019-03-30T00:16:02.594Z,43.00
2019-03-30T00:18:31.879Z,45.17
2019-03-30T00:21:01.044Z,44.17
2019-03-30T00:23:30.221Z,44.90
2019-03-30T00:25:59.393Z,43.20
2019-03-30T00:28:28.631Z,44.37
2019-03-30T00:30:57.829Z,42.23
2019-03-30T00:33:26.993Z,43.57
2019-03-30T00:35:56.215Z,45.70
2019-03-30T00:38:25.387Z,43.07
2019-03-30T00:40:54.569Z,43.33
2019-03-30T00:43:23.754Z,45.70
2019-03-30T00:45:52.946Z,42.43
2019-03-30T00:48:22.165Z,43.93
2019-03-30T00:50:51.464Z,43.90
2019-03-30T00:53:20.662Z,41.30
2019-03-30T00:55:49.850Z,43.87
2019-03-30T00:58:19.044Z,42.77
2019-03-30T01:00:48.232Z,44.67
2019-03-30T01:03:17.409Z,43.30
2019-03-30T01:05:46.582Z,43.73
2019-03-30T01:08:15.762Z,43.33
2019-03-30T01:10:44.941Z,43.53
2019-03-30T01:13:14.127Z,41.57
2019-03-30T01:15:43.305Z,42.77
2019-03-30T01:18:12.469Z,41.40
2019-03-30T01:20:41.642Z,43.67
2019-03-30T01:23:10.807Z,43.00
2019-03-30T01:25:40.003Z,44.50
2019-03-30T01:28:09.182Z,45.43
2019-03-30T01:30:38.371Z,44.60
2019-03-30T01:33:07.580Z,43.43
2019-03-30T01:35:36.761Z,43.30
2019-03-30T01:38:05.938Z,44.23
2019-03-30T01:40:35.114Z,45.97
2019-03-30T01:43:04.294Z,45.13
2019-03-30T01:45:33.466Z,43.03
2019-03-30T01:48:02.694Z,43.13
2019-03-30T01:50:31.871Z,44.37
2019-03-30T01:53:01.058Z,44.50
2019-03-30T01:55:30.244Z,44.07
2019-03-30T01:57:59.420Z,43.27
2019-03-30T02:00:28.606Z,43.20
2019-03-30T02:02:57.795Z,45.67
2019-03-30T02:05:27.054Z,43.13
2019-03-30T02:07:56.219Z,44.60
2019-03-30T02:10:39.382Z,43.80
2019-03-30T02:13:08.586Z,43.00
2019-03-30T02:15:37.750Z,43.57
2019-03-30T02:18:06.950Z,42.87
2019-03-30T02:20:40.780Z,44.90
2019-03-30T02:23:09.970Z,42.40
2019-03-30T02:25:39.140Z,43.53
2019-03-30T02:28:08.395Z,42.13
2019-03-30T02:30:37.627Z,43.50
2019-03-30T02:33:06.840Z,43.90
2019-03-30T02:35:36.033Z,43.63
2019-03-30T02:38:05.238Z,42.23
2019-03-30T02:40:34.795Z,43.30
2019-03-30T02:43:03.966Z,44.97
2019-03-30T02:45:33.152Z,44.47
2019-03-30T02:48:02.359Z,43.03
2019-03-30T02:50:47.730Z,41.00
2019-03-30T02:53:02.675Z,43.03
2019-03-30T02:55:31.842Z,43.93
2019-03-30T02:58:01.094Z,42.03
2019-03-30T03:00:30.270Z,42.00
2019-03-30T03:02:59.588Z,41.00
2019-03-30T03:05:28.788Z,44.40
2019-03-30T03:07:57.971Z,42.33
2019-03-30T03:10:27.164Z,43.67
2019-03-30T03:12:56.335Z,42.23
2019-03-30T03:15:25.531Z,41.13
2019-03-30T03:17:54.699Z,42.10
2019-03-30T03:20:23.870Z,44.87
2019-03-30T03:22:53.044Z,42.10
2019-03-30T03:25:22.233Z,42.23
2019-03-30T03:27:51.415Z,41.97
2019-03-30T03:30:20.787Z,42.23
2019-03-30T03:32:53.143Z,42.83
2019-03-30T03:35:22.442Z,42.53
2019-03-30T03:37:51.624Z,43.07
2019-03-30T03:40:20.789Z,42.90
2019-03-30T03:42:51.611Z,42.80
2019-03-30T03:45:20.790Z,43.43
2019-03-30T03:47:49.995Z,43.87
2019-03-30T03:50:41.669Z,42.43
2019-03-30T03:53:12.311Z,43.03
2019-03-30T03:55:41.745Z,42.70
2019-03-30T03:58:11.616Z,41.77
2019-03-30T04:00:40.787Z,42.27
2019-03-30T04:03:10.790Z,42.37
2019-03-30T04:05:41.643Z,43.00
2019-03-30T04:08:11.537Z,42.93
2019-03-30T04:10:40.792Z,42.10
2019-03-30T04:13:09.951Z,44.30
2019-03-30T04:15:39.204Z,42.10
2019-03-30T04:18:08.366Z,42.20
2019-03-30T04:20:37.526Z,43.07
2019-03-30T04:23:06.718Z,40.80
2019-03-30T04:25:35.906Z,40.93
2019-03-30T04:28:05.084Z,40.83
2019-03-30T04:30:34.348Z,43.13
2019-03-30T04:33:03.521Z,40.20
2019-03-30T04:35:32.729Z,41.07
2019-03-30T04:38:01.990Z,42.33
2019-03-30T04:40:31.175Z,40.20
2019-03-30T04:43:00.346Z,45.37
2019-03-30T04:45:29.517Z,40.73
2019-03-30T04:47:58.694Z,40.97
2019-03-30T04:50:27.912Z,38.70
2019-03-30T04:52:57.093Z,39.77
2019-03-30T04:55:27.333Z,38.73
2019-03-30T04:57:57.867Z,38.47
2019-03-30T05:00:27.262Z,40.70
2019-03-30T05:02:56.430Z,41.47
2019-03-30T05:05:25.589Z,40.03
2019-03-30T05:07:54.786Z,38.73
2019-03-30T05:10:24.018Z,40.00
2019-03-30T05:12:53.207Z,39.30
2019-03-30T05:15:22.405Z,39.17
2019-03-30T05:17:51.595Z,37.07
2019-03-30T05:20:20.774Z,37.40
2019-03-30T05:22:51.298Z,38.60
2019-03-30T05:25:20.797Z,38.83
2019-03-30T05:27:49.994Z,37.30
2019-03-30T05:30:19.170Z,40.97
2019-03-30T05:32:48.367Z,37.93
2019-03-30T05:35:17.529Z,37.50
2019-03-30T05:37:46.715Z,38.23
2019-03-30T05:40:15.913Z,37.57
2019-03-30T05:42:45.110Z,38.70
2019-03-30T05:45:14.291Z,39.63
2019-03-30T05:47:43.471Z,38.87
2019-03-30T05:50:12.685Z,36.93
2019-03-30T05:52:41.859Z,39.77
2019-03-30T05:55:11.071Z,37.53
2019-03-30T05:57:40.237Z,37.97
2019-03-30T06:00:10.290Z,36.20
2019-03-30T06:02:39.474Z,36.47
2019-03-30T06:05:08.667Z,35.57
2019-03-30T06:07:37.933Z,37.33
2019-03-30T06:10:07.145Z,35.53
2019-03-30T06:12:36.333Z,35.27
2019-03-30T06:15:06.002Z,33.40
2019-03-30T06:17:35.283Z,35.97
2019-03-30T06:20:04.591Z,34.73
2019-03-30T06:22:40.065Z,34.20
2019-03-30T06:25:04.764Z,35.07
2019-03-30T06:27:34.710Z,33.80
2019-03-30T06:30:23.851Z,33.47
2019-03-30T06:32:53.045Z,31.63
2019-03-30T06:35:22.572Z,30.30
2019-03-30T06:37:51.759Z,30.60
2019-03-30T06:40:20.969Z,29.43
2019-03-30T06:42:52.174Z,30.40
2019-03-30T06:45:22.949Z,29.83
2019-03-30T06:47:52.200Z,30.63
2019-03-30T06:50:21.486Z,27.60
2019-03-30T06:52:57.372Z,28.47
2019-03-30T06:55:21.607Z,25.90
2019-03-30T06:57:50.831Z,25.10
2019-03-30T07:00:31.364Z,22.00
2019-03-30T07:03:01.067Z,22.43
2019-03-30T07:05:30.286Z,21.13
2019-03-30T07:07:59.472Z,21.33
2019-03-30T07:10:28.686Z,22.17
2019-03-30T07:12:57.907Z,22.30
2019-03-30T07:15:27.130Z,22.47
2019-03-30T07:18:01.363Z,22.77
2019-03-30T07:20:30.567Z,23.27
2019-03-30T07:23:11.088Z,20.80
2019-03-30T07:25:30.835Z,22.20
2019-03-30T07:28:00.065Z,22.30
2019-03-30T07:30:29.274Z,21.40
2019-03-30T07:33:00.558Z,22.87
2019-03-30T07:35:29.792Z,21.73
2019-03-30T07:38:06.573Z,21.27
2019-03-30T07:40:38.159Z,22.07
2019-03-30T07:43:07.375Z,21.47
2019-03-30T07:45:36.662Z,22.10
2019-03-30T07:48:05.874Z,21.57
2019-03-30T07:50:35.078Z,22.07
2019-03-30T07:53:04.302Z,21.50
2019-03-30T07:55:33.582Z,21.53
2019-03-30T07:58:02.888Z,21.53
2019-03-30T08:00:32.198Z,21.73
2019-03-30T08:03:01.432Z,20.03
2019-03-30T08:05:30.654Z,19.63
2019-03-30T08:07:59.875Z,19.77
2019-03-30T08:10:29.105Z,20.80
2019-03-30T08:12:58.322Z,20.90
2019-03-30T08:15:27.538Z,21.20
2019-03-30T08:17:56.788Z,20.93
2019-03-30T08:20:25.984Z,22.00
2019-03-30T08:22:55.159Z,22.23
2019-03-30T08:25:24.379Z,21.33
2019-03-30T08:27:53.578Z,20.57
2019-03-30T08:30:22.786Z,21.63
2019-03-30T08:32:52.026Z,20.70
2019-03-30T08:35:21.245Z,22.97
2019-03-30T08:37:50.464Z,22.73
2019-03-30T08:40:19.935Z,23.13
2019-03-30T08:42:51.624Z,21.80
2019-03-30T08:45:20.884Z,22.70
2019-03-30T08:47:50.096Z,23.70
2019-03-30T08:50:19.359Z,22.83
2019-03-30T08:52:48.577Z,23.03
2019-03-30T08:55:17.844Z,24.93
2019-03-30T08:57:47.095Z,23.40
2019-03-30T09:00:21.492Z,24.43
2019-03-30T09:02:50.720Z,24.27
2019-03-30T09:05:19.947Z,24.10
2019-03-30T09:07:49.166Z,24.00
2019-03-30T09:10:18.407Z,24.70
2019-03-30T09:12:47.639Z,24.60
2019-03-30T09:15:17.132Z,24.03
2019-03-30T09:17:46.355Z,24.20
2019-03-30T09:20:15.611Z,23.53
2019-03-30T09:22:44.843Z,25.37
2019-03-30T09:25:14.062Z,25.90
2019-03-30T09:27:43.270Z,25.80
2019-03-30T09:30:12.543Z,26.17
2019-03-30T09:32:44.930Z,26.67
2019-03-30T09:35:12.843Z,27.20
2019-03-30T09:37:42.077Z,26.13
2019-03-30T09:40:11.636Z,26.60
2019-03-30T09:42:40.973Z,25.93
2019-03-30T09:45:27.603Z,25.67
2019-03-30T09:47:56.989Z,26.00
2019-03-30T09:50:27.009Z,25.40
2019-03-30T09:52:56.373Z,26.97
2019-03-30T09:55:27.237Z,26.47
2019-03-30T09:57:56.562Z,26.53
2019-03-30T10:00:25.850Z,26.57
2019-03-30T10:02:55.108Z,27.40
2019-03-30T10:05:24.301Z,26.80
2019-03-30T10:07:55.993Z,26.63
2019-03-30T10:10:25.202Z,26.30
2019-03-30T10:12:54.429Z,26.03
2019-03-30T10:15:23.720Z,26.87
2019-03-30T10:17:52.932Z,27.80
2019-03-30T10:20:22.222Z,27.17
2019-03-30T10:22:51.473Z,28.07
2019-03-30T10:25:20.718Z,27.20
2019-03-30T10:27:50.015Z,26.83
2019-03-30T10:30:20.492Z,27.47
2019-03-30T10:32:58.548Z,27.47
2019-03-30T10:35:27.806Z,26.90
2019-03-30T10:37:57.037Z,27.37
2019-03-30T10:40:26.269Z,27.10
2019-03-30T10:42:55.519Z,27.50
2019-03-30T10:45:24.837Z,27.13
2019-03-30T10:47:54.073Z,27.67
2019-03-30T10:50:23.284Z,28.57
2019-03-30T10:52:52.556Z,28.60
2019-03-30T10:55:21.783Z,28.07
2019-03-30T10:57:51.082Z,28.13
2019-03-30T11:00:42.376Z,29.17
2019-03-30T11:03:11.613Z,28.87
2019-03-30T11:05:40.968Z,27.77
2019-03-30T11:08:10.926Z,28.30
2019-03-30T11:10:41.775Z,26.30
2019-03-30T11:13:10.979Z,26.57
2019-03-30T11:15:40.179Z,26.23
2019-03-30T11:18:09.421Z,27.10
2019-03-30T11:20:39.927Z,27.40
2019-03-30T11:23:09.138Z,25.83
2019-03-30T11:25:38.363Z,25.80
2019-03-30T11:28:07.582Z,26.87
2019-03-30T11:30:36.799Z,25.33
2019-03-30T11:33:06.029Z,25.87
2019-03-30T11:35:35.247Z,25.17
2019-03-30T11:38:04.586Z,26.20
2019-03-30T11:40:33.939Z,26.53
2019-03-30T11:43:03.254Z,25.77
2019-03-30T11:45:32.463Z,27.83
2019-03-30T11:48:01.725Z,27.83
2019-03-30T11:50:30.975Z,29.67
2019-03-30T11:53:00.317Z,32.47
2019-03-30T11:55:29.580Z,34.33
2019-03-30T11:57:58.931Z,34.27
2019-03-30T12:00:28.146Z,36.13
2019-03-30T12:02:57.366Z,36.17
2019-03-30T12:05:28.299Z,34.70
2019-03-30T12:07:57.540Z,32.87
2019-03-30T12:10:26.764Z,33.50
2019-03-30T12:12:56.095Z,32.50
2019-03-30T12:15:25.356Z,32.13
2019-03-30T12:17:54.671Z,31.43
2019-03-30T12:20:23.869Z,29.37
2019-03-30T12:22:53.114Z,29.37
2019-03-30T12:25:34.944Z,30.00
2019-03-30T12:27:53.238Z,29.17
2019-03-30T12:30:22.582Z,30.40
2019-03-30T12:32:51.781Z,28.97
2019-03-30T12:35:21.049Z,30.17
2019-03-30T12:37:50.234Z,30.27
2019-03-30T12:40:19.451Z,26.57
2019-03-30T12:42:48.649Z,26.07
2019-03-30T12:45:17.842Z,25.73
2019-03-30T12:47:47.029Z,26.80
2019-03-30T12:50:16.211Z,29.57
2019-03-30T12:52:45.469Z,24.20
2019-03-30T12:55:14.699Z,24.90
2019-03-30T12:57:43.896Z,24.50
2019-03-30T13:00:13.270Z,25.70
2019-03-30T13:02:42.464Z,24.53
2019-03-30T13:05:11.660Z,25.60
2019-03-30T13:07:40.881Z,28.37
2019-03-30T13:10:10.209Z,29.03
2019-03-30T13:12:39.422Z,28.67
2019-03-30T13:15:08.891Z,28.93
2019-03-30T13:17:38.094Z,29.53
2019-03-30T13:20:07.339Z,30.10
2019-03-30T13:22:36.509Z,29.73
2019-03-30T13:25:05.802Z,33.17
2019-03-30T13:27:35.007Z,34.67
2019-03-30T13:30:04.638Z,34.67
2019-03-30T13:32:33.834Z,32.30
2019-03-30T13:35:03.026Z,35.67
2019-03-30T13:37:32.201Z,34.37
2019-03-30T13:40:01.425Z,34.73
2019-03-30T13:42:30.618Z,33.50
2019-03-30T13:45:03.154Z,35.30
2019-03-30T13:47:30.723Z,35.90
2019-03-30T13:49:59.934Z,32.50
2019-03-30T13:52:29.232Z,31.17
2019-03-30T13:54:58.425Z,35.83
2019-03-30T13:57:27.613Z,35.50
2019-03-30T13:59:56.803Z,34.47
2019-03-30T14:02:26.022Z,35.77
2019-03-30T14:04:55.186Z,36.73
2019-03-30T14:07:26.471Z,36.27
2019-03-30T14:09:55.670Z,32.40
2019-03-30T14:12:24.862Z,34.30
2019-03-30T14:14:54.035Z,33.63
2019-03-30T14:17:23.233Z,34.83
2019-03-30T14:19:52.429Z,35.17
2019-03-30T14:22:21.619Z,37.27
2019-03-30T14:24:51.719Z,36.43
2019-03-30T14:27:20.919Z,34.93
2019-03-30T14:29:50.132Z,37.00
2019-03-30T14:32:19.328Z,39.97
2019-03-30T14:34:48.542Z,39.53
2019-03-30T14:37:17.743Z,37.47
2019-03-30T14:39:46.946Z,34.67
2019-03-30T14:42:16.162Z,37.13
2019-03-30T14:44:45.353Z,36.93
2019-03-30T14:47:14.624Z,36.07
2019-03-30T14:49:43.803Z,33.67
2019-03-30T14:52:13.163Z,32.60
2019-03-30T14:54:52.582Z,31.27
2019-03-30T14:57:13.293Z,31.33
2019-03-30T14:59:42.483Z,33.27
2019-03-30T15:02:11.677Z,34.67
2019-03-30T15:04:40.885Z,32.70
2019-03-30T15:07:10.090Z,30.77
2019-03-30T15:09:39.304Z,33.43
2019-03-30T15:12:08.487Z,32.83
2019-03-30T15:14:37.681Z,32.73
2019-03-30T15:17:06.852Z,31.13
2019-03-30T15:19:36.033Z,31.83
2019-03-30T15:22:05.218Z,33.30
2019-03-30T15:24:34.431Z,31.80
2019-03-30T15:27:03.661Z,30.87
2019-03-30T15:29:32.858Z,32.93
2019-03-30T15:32:02.058Z,33.43
2019-03-30T15:34:31.241Z,33.37
2019-03-30T15:37:00.482Z,33.07
2019-03-30T15:39:29.663Z,32.13
2019-03-30T15:41:58.921Z,31.87
2019-03-30T15:44:28.093Z,31.03
2019-03-30T15:46:57.310Z,30.90
2019-03-30T15:49:26.507Z,29.53
2019-03-30T15:51:55.692Z,29.07
2019-03-30T15:54:24.927Z,30.37
2019-03-30T15:56:54.110Z,28.57
2019-03-30T15:59:23.332Z,27.33
2019-03-30T16:01:52.565Z,24.90
2019-03-30T16:04:21.861Z,27.07
2019-03-30T16:06:51.028Z,26.63
2019-03-30T16:09:20.222Z,27.80
2019-03-30T16:11:49.402Z,28.83
2019-03-30T16:14:18.617Z,28.17
2019-03-30T16:16:47.831Z,26.63
2019-03-30T16:19:17.040Z,28.03
2019-03-30T16:21:49.527Z,27.37
2019-03-30T16:24:17.149Z,27.67
2019-03-30T16:26:46.357Z,29.27
2019-03-30T16:29:15.547Z,29.90
2019-03-30T16:31:44.821Z,29.17
2019-03-30T16:34:14.058Z,32.07
2019-03-30T16:36:43.257Z,31.23
2019-03-30T16:39:12.438Z,26.00
2019-03-30T16:41:41.623Z,24.40
2019-03-30T16:44:10.819Z,25.53
2019-03-30T16:46:40.015Z,25.77
2019-03-30T16:49:09.205Z,25.57
2019-03-30T16:51:38.415Z,25.20
2019-03-30T16:54:07.608Z,26.50
2019-03-30T16:56:36.810Z,27.60
2019-03-30T16:59:06.015Z,27.60
2019-03-30T17:01:35.202Z,26.97
2019-03-30T17:04:04.511Z,26.77
2019-03-30T17:06:33.889Z,28.33
2019-03-30T17:09:04.775Z,28.50
2019-03-30T17:11:33.968Z,27.37
2019-03-30T17:14:03.254Z,28.10
2019-03-30T17:16:32.438Z,28.00
2019-03-30T17:19:01.677Z,28.53
2019-03-30T17:21:30.860Z,27.57
2019-03-30T17:24:00.058Z,29.60
2019-03-30T17:26:29.294Z,30.03
2019-03-30T17:28:58.477Z,26.10
2019-03-30T17:31:27.661Z,27.10
2019-03-30T17:33:56.867Z,27.07
2019-03-30T17:36:26.079Z,26.43
2019-03-30T17:38:55.294Z,26.13
2019-03-30T17:41:24.482Z,34.23
2019-03-30T17:43:53.686Z,26.10
2019-03-30T17:46:22.881Z,25.90
2019-03-30T17:48:52.074Z,25.57
2019-03-30T17:51:21.273Z,25.97
2019-03-30T17:53:50.472Z,25.53
2019-03-30T17:56:20.470Z,25.33
2019-03-30T17:58:49.648Z,26.53
2019-03-30T18:01:18.925Z,28.43
2019-03-30T18:03:48.098Z,26.80
2019-03-30T18:06:17.278Z,28.57
2019-03-30T18:08:46.554Z,30.67
2019-03-30T18:11:15.783Z,30.17
2019-03-30T18:13:44.953Z,30.13
2019-03-30T18:16:14.162Z,31.40
2019-03-30T18:18:43.402Z,33.80
2019-03-30T18:21:12.618Z,33.13
2019-03-30T18:23:41.873Z,34.63
2019-03-30T18:26:11.070Z,34.73
2019-03-30T18:28:40.286Z,36.33
2019-03-30T18:31:09.513Z,34.87
2019-03-30T18:33:38.710Z,34.93
2019-03-30T18:36:07.893Z,33.37
2019-03-30T18:38:37.090Z,33.97
2019-03-30T18:41:06.309Z,35.07
2019-03-30T18:43:35.553Z,35.27
2019-03-30T18:46:04.823Z,40.47
2019-03-30T18:48:34.014Z,33.07
2019-03-30T18:51:03.221Z,30.37
2019-03-30T18:53:32.433Z,39.13
2019-03-30T18:56:01.766Z,25.67
2019-03-30T18:58:41.577Z,26.10
2019-03-30T19:01:02.033Z,25.63
2019-03-30T19:03:31.215Z,26.93
2019-03-30T19:06:00.417Z,24.13
2019-03-30T19:08:29.598Z,25.73
2019-03-30T19:10:58.791Z,26.07
2019-03-30T19:13:27.994Z,27.70
2019-03-30T19:15:57.197Z,27.43
2019-03-30T19:18:26.463Z,26.97
2019-03-30T19:20:55.646Z,26.90
2019-03-30T19:23:24.875Z,27.90
2019-03-30T19:25:54.069Z,26.93
2019-03-30T19:28:23.250Z,28.27
2019-03-30T19:30:52.492Z,28.07
2019-03-30T19:33:21.686Z,28.17
2019-03-30T19:35:50.915Z,28.93
2019-03-30T19:38:20.099Z,28.07
2019-03-30T19:40:49.338Z,28.07
2019-03-30T19:43:18.593Z,28.90
2019-03-30T19:45:47.810Z,29.33
2019-03-30T19:48:17.033Z,31.07
2019-03-30T19:50:46.325Z,31.70
2019-03-30T19:53:15.539Z,34.97
2019-03-30T19:55:44.778Z,35.17
2019-03-30T19:58:13.998Z,32.53
2019-03-30T20:00:43.224Z,33.47
2019-03-30T20:03:12.401Z,33.13
2019-03-30T20:05:44.494Z,34.63
2019-03-30T20:08:12.951Z,34.47
2019-03-30T20:10:42.214Z,35.90
2019-03-30T20:13:11.410Z,37.20
2019-03-30T20:15:40.655Z,33.67
2019-03-30T20:18:09.900Z,36.30
2019-03-30T20:20:39.081Z,36.23
2019-03-30T20:23:08.264Z,38.57
2019-03-30T20:25:37.538Z,38.17
2019-03-30T20:28:06.776Z,37.03
2019-03-30T20:30:35.975Z,39.10
2019-03-30T20:33:05.275Z,41.60
2019-03-30T20:35:34.510Z,40.73
2019-03-30T20:38:03.830Z,39.17
2019-03-30T20:40:33.069Z,38.63
2019-03-30T20:43:02.303Z,42.23
2019-03-30T20:45:31.518Z,40.13
2019-03-30T20:48:00.707Z,42.27
2019-03-30T20:50:29.980Z,40.13
2019-03-30T20:52:59.178Z,41.20
2019-03-30T20:55:28.391Z,39.87
2019-03-30T20:57:57.581Z,39.23
2019-03-30T21:00:26.781Z,40.30
2019-03-30T21:02:55.966Z,40.53
2019-03-30T21:05:25.166Z,40.37
2019-03-30T21:07:54.373Z,40.83
2019-03-30T21:10:23.558Z,42.67
2019-03-30T21:12:52.809Z,41.33
2019-03-30T21:15:21.985Z,42.93
2019-03-30T21:17:51.166Z,42.63
2019-03-30T21:20:20.362Z,44.77
2019-03-30T21:22:49.549Z,42.37
2019-03-30T21:25:18.809Z,44.83
2019-03-30T21:27:48.062Z,48.17
2019-03-30T21:30:17.242Z,44.80
2019-03-30T21:32:46.458Z,42.20
2019-03-30T21:35:15.662Z,43.20
2019-03-30T21:37:44.946Z,44.07
2019-03-30T21:40:14.163Z,44.47
2019-03-30T21:42:43.354Z,43.10
2019-03-30T21:45:12.552Z,43.77
2019-03-30T21:47:41.758Z,43.33
2019-03-30T21:50:10.942Z,42.43
2019-03-30T21:52:40.139Z,44.60
2019-03-30T21:55:09.348Z,44.37
2019-03-30T21:57:38.585Z,44.63
2019-03-30T22:00:10.132Z,44.50
2019-03-30T22:02:39.218Z,45.50
2019-03-30T22:05:08.402Z,45.93
2019-03-30T22:07:37.669Z,45.50
2019-03-30T22:10:08.259Z,44.37
2019-03-30T22:12:39.643Z,46.17
2019-03-30T22:15:09.155Z,50.80
2019-03-30T22:17:38.617Z,46.23
2019-03-30T22:20:07.954Z,49.30
2019-03-30T22:22:37.147Z,46.27
2019-03-30T22:25:06.571Z,46.50
2019-03-30T22:27:35.769Z,46.93
2019-03-30T22:30:06.119Z,46.43
2019-03-30T22:32:35.306Z,47.67
2019-03-30T22:35:04.593Z,48.93
2019-03-30T22:37:33.848Z,49.47
2019-03-30T22:40:03.039Z,50.17
2019-03-30T22:42:32.227Z,48.07
2019-03-30T22:45:01.459Z,50.93
2019-03-30T22:47:30.639Z,51.20
2019-03-30T22:49:59.871Z,50.13
2019-03-30T22:52:29.058Z,48.40
2019-03-30T22:54:58.239Z,50.73
2019-03-30T22:57:27.428Z,46.80
2019-03-30T22:59:56.652Z,49.17
2019-03-30T23:02:26.110Z,49.60
2019-03-30T23:04:55.313Z,50.27
2019-03-30T23:07:24.614Z,51.13
2019-03-30T23:09:53.802Z,52.77
2019-03-30T23:12:22.978Z,50.90
2019-03-30T23:14:52.175Z,52.63
2019-03-30T23:17:21.440Z,53.27
2019-03-30T23:19:50.625Z,48.40
2019-03-30T23:22:19.822Z,53.43
2019-03-30T23:24:48.997Z,55.37
2019-03-30T23:27:18.231Z,55.60
2019-03-30T23:29:47.499Z,57.40
2019-03-30T23:32:16.693Z,58.60
2019-03-30T23:34:45.933Z,57.67
2019-03-30T23:37:15.134Z,57.90
2019-03-30T23:39:44.333Z,57.23
2019-03-30T23:42:13.594Z,57.13
2019-03-30T23:44:42.806Z,60.67
2019-03-30T23:47:12.031Z,60.00
2019-03-30T23:49:41.206Z,57.90
2019-03-30T23:52:10.403Z,60.07
2019-03-30T23:54:39.582Z,60.17
2019-03-30T23:57:08.770Z,63.43
2019-03-30T23:59:37.963Z,57.93
